METAR Data
IDs: Format: Raw Decoded Include TAF

Data at: 0309 UTC 18 Jun 2019

PAOT 180253Z 06016KT 10SM CLR 21/02 A2972 RMK AO2 SLP065 T02110022 58002
PAOT 180153Z 06015KT 10SM CLR 21/01 A2973 RMK AO2 SLP067 T02110006
PAOT 180053Z 07016G22KT 10SM CLR 22/01 A2973 RMK AO2 PK WND 07026/0010 SLP069 T02170006
PAOT 172353Z 06016G22KT 10SM CLR 21/M01 A2973 RMK AO2 PK WND 06027/2306 SLP067 T02111006 10222 20167 55003
PAOT 172253Z 03012KT 10SM CLR 22/M03 A2972 RMK AO2 SLP063 T02221028
PAOT 172153Z 01010KT 10SM CLR 21/02 A2973 RMK AO2 SLP067 T02110017
PAOT 172053Z 03015G21KT 10SM CLR 20/03 A2974 RMK AO2 SLP070 T02000028 58012
PAOT 171953Z 03011KT 10SM CLR 20/07 A2976 RMK AO2 SLP077 T02000072
PAOT 171853Z 36011KT 10SM CLR 18/08 A2976 RMK AO2 SLP079 T01780083
PAOT 171753Z 36009KT 10SM CLR 17/09 A2977 RMK AO2 SLP081 T01670089 10172 20150 56006
PAOT 171653Z 36014KT 10SM CLR 16/09 A2977 RMK AO2 SLP082 T01610089
PAOT 171553Z 01011KT 10SM CLR 16/08 A2978 RMK AO2 SLP084 T01560083
PAOT 171453Z 01010KT 10SM CLR 15/08 A2979 RMK AO2 SLP087 T01500078 58003
PAOT 171353Z AUTO 03010KT 10SM CLR 16/07 A2980 RMK AO2 SLP090 T01560067 TSNO
PAOT 171253Z AUTO 02011KT 10SM CLR 17/06 A2980 RMK AO2 SLP090 T01720056 TSNO
PAOT 171153Z AUTO 04008KT 10SM CLR 17/07 A2980 RMK AO2 SLP090 T01720067 10189 20172 51002 TSNO
PAOT 171053Z AUTO 02007KT 10SM CLR 18/07 A2980 RMK SLP090 T01780072 TSNO VIA AUTODIAL
PAOT 170953Z AUTO 36003KT 10SM CLR 17/11 A2980 RMK AO2 SLP090 T01720111 TSNO
PAOT 170853Z AUTO 33004KT 10SM CLR 18/12 A2979 RMK AO2 SLP087 T01780117 401940144 53002 TSNO
PAOT 170753Z AUTO 31011KT 10SM CLR 18/11 A2978 RMK AO2 SLP085 T01780106 TSNO
PAOT 170653Z 30013KT 10SM CLR 19/08 A2978 RMK AO2 SLP084 T01890078
PAOT 170553Z 30015KT 10SM CLR 18/09 A2978 RMK AO2 SLP085 T01830089 10194 20178 56011
PAOT 170453Z 30015KT 10SM CLR 18/07 A2979 RMK AO2 SLP087 T01830072
PAOT 170353Z 30017KT 10SM CLR 19/07 A2980 RMK AO2 SLP092 T01890072
PAOT 170253Z 29015KT 10SM CLR 18/08 A2981 RMK AO2 SLP096 T01830078 56013
PAOT 170153Z 29013KT 10SM CLR 18/08 A2982 RMK AO2 SLP098 T01830083
PAOT 170053Z 28013KT 10SM CLR 18/09 A2984 RMK AO2 SLP103 T01780094
PAOT 162353Z 28012KT 9SM CLR 18/09 A2985 RMK AO2 SLP109 T01780094 10183 20167 56009
PAOT 162253Z 27011KT 10SM CLR 17/09 A2986 RMK AO2 SLP112 T01720094
PAOT 162153Z 27010KT 10SM CLR 18/10 A2987 RMK AO2 SLP114 T01780100
PAOT 162053Z 25008KT 10SM CLR 18/08 A2988 RMK AO2 SLP118 T01780083 57004
PAOT 161953Z 27006KT 10SM CLR 17/09 A2988 RMK AO2 SLP120 T01720094
PAOT 161853Z 26005KT 6SM HZ CLR 17/09 A2989 RMK AO2 SLP120 T01720089
PAOT 161753Z 30004KT 10SM CLR 17/06 A2989 RMK AO2 SLP122 T01720061 10189 20144 55000
PAOT 161653Z 00000KT 10SM CLR 19/02 A2989 RMK AO2 SLP122 T01890022
PAOT 161553Z 04004KT 10SM CLR 18/04 A2989 RMK AO2 SLP121 T01780044